TAM3388 SBGR-SBPL
Flight info
| Callsign | TAM3388 |
|---|---|
| Flight time | 2h 24m |
| Altitude | 37000 |
| Route | NUXEL UZ23 UTLEV UZ88 REBAM |
| Aircraft | A320/M-SDE3FGHIRWY/LB1 |
Departure
| Time | 2026-04-16 02:56 |
|---|---|
| Airport | São Paulo/Guarulhos–Governor André Franco Montoro International Airport (SBGR) |
Arrival
| Time | 2026-04-16 05:20 |
|---|---|
| Airport | Senador Nilo Coelho Airport (SBPL) |
| Time | Latitude | Longitude | Altitude | Speed | Heading |
|---|---|---|---|---|---|
| 2026-04-16 02:04 | -23.42737 | -46.47963 | 2468 ft | 0 kts | 264° |
| 2026-04-16 02:07 | -23.42736 | -46.47963 | 2468 ft | 0 kts | 264° |
| 2026-04-16 02:07 | -23.42737 | -46.47963 | 2468 ft | 0 kts | 264° |
| 2026-04-16 02:08 | -23.42736 | -46.47963 | 2468 ft | 0 kts | 264° |
| 2026-04-16 02:20 | -23.42736 | -46.47962 | 2468 ft | 0 kts | 264° |
| 2026-04-16 02:45 | -23.42735 | -46.47946 | 2472 ft | 4 kts | 261° |
| 2026-04-16 02:45 | -23.42730 | -46.47918 | 2468 ft | 4 kts | 251° |
| 2026-04-16 02:45 | -23.42719 | -46.47894 | 2472 ft | 4 kts | 223° |
| 2026-04-16 02:45 | -23.42707 | -46.47885 | 2468 ft | 0 kts | 199° |
| 2026-04-16 02:49 | -23.42713 | -46.47886 | 2470 ft | 4 kts | 191° |
| 2026-04-16 02:49 | -23.42787 | -46.47884 | 2471 ft | 14 kts | 171° |
| 2026-04-16 02:50 | -23.42870 | -46.47849 | 2468 ft | 12 kts | 147° |
| 2026-04-16 02:50 | -23.42953 | -46.47819 | 2472 ft | 13 kts | 174° |
| 2026-04-16 02:50 | -23.43019 | -46.47814 | 2472 ft | 7 kts | 183° |
| 2026-04-16 02:50 | -23.43039 | -46.47825 | 2471 ft | 3 kts | 224° |
| 2026-04-16 02:51 | -23.43046 | -46.47869 | 2468 ft | 8 kts | 256° |
| 2026-04-16 02:51 | -23.43060 | -46.47929 | 2470 ft | 9 kts | 253° |
| 2026-04-16 02:51 | -23.43080 | -46.47994 | 2468 ft | 10 kts | 253° |
| 2026-04-16 02:51 | -23.43099 | -46.48068 | 2471 ft | 11 kts | 252° |
| 2026-04-16 02:52 | -23.43122 | -46.48145 | 2469 ft | 11 kts | 252° |
| 2026-04-16 02:52 | -23.43144 | -46.48230 | 2470 ft | 12 kts | 255° |
| 2026-04-16 02:52 | -23.43163 | -46.48307 | 2469 ft | 6 kts | 255° |
| 2026-04-16 02:52 | -23.43177 | -46.48357 | 2471 ft | 7 kts | 245° |
| 2026-04-16 02:53 | -23.43219 | -46.48387 | 2469 ft | 8 kts | 182° |
| 2026-04-16 02:53 | -23.43247 | -46.48381 | 2470 ft | 2 kts | 167° |
| 2026-04-16 02:53 | -23.43264 | -46.48377 | 2471 ft | 3 kts | 167° |
| 2026-04-16 02:53 | -23.43285 | -46.48371 | 2472 ft | 3 kts | 165° |
| 2026-04-16 02:54 | -23.43310 | -46.48364 | 2469 ft | 4 kts | 165° |
| 2026-04-16 02:54 | -23.43353 | -46.48351 | 2472 ft | 10 kts | 161° |
| 2026-04-16 02:54 | -23.43407 | -46.48267 | 2469 ft | 16 kts | 98° |
| 2026-04-16 02:54 | -23.43396 | -46.48216 | 2472 ft | 0 kts | 73° |
| 2026-04-16 02:55 | -23.43385 | -46.48176 | 2474 ft | 27 kts | 73° |
| 2026-04-16 02:55 | -23.43270 | -46.47744 | 2469 ft | 91 kts | 74° |
| 2026-04-16 02:55 | -23.43033 | -46.46893 | 2472 ft | 141 kts | 73° |
| 2026-04-16 02:55 | -23.42731 | -46.45723 | 2597 ft | 170 kts | 74° |
| 2026-04-16 02:56 | -23.42386 | -46.44420 | 3046 ft | 184 kts | 75° |
| 2026-04-16 02:56 | -23.42012 | -46.43034 | 3497 ft | 201 kts | 73° |
| 2026-04-16 02:56 | -23.41558 | -46.41487 | 3767 ft | 225 kts | 72° |
| 2026-04-16 02:56 | -23.41043 | -46.39787 | 4105 ft | 249 kts | 72° |
| 2026-04-16 02:57 | -23.40486 | -46.37935 | 4692 ft | 261 kts | 72° |
| 2026-04-16 02:57 | -23.39863 | -46.36058 | 5477 ft | 267 kts | 62° |
| 2026-04-16 02:57 | -23.38870 | -46.34330 | 6255 ft | 271 kts | 57° |
| 2026-04-16 02:57 | -23.37849 | -46.32595 | 7003 ft | 275 kts | 58° |
| 2026-04-16 02:58 | -23.36817 | -46.30820 | 7744 ft | 279 kts | 58° |
| 2026-04-16 02:58 | -23.35775 | -46.29017 | 8465 ft | 283 kts | 58° |
| 2026-04-16 02:58 | -23.34726 | -46.27197 | 9180 ft | 287 kts | 58° |
| 2026-04-16 02:58 | -23.33660 | -46.25346 | 9888 ft | 291 kts | 58° |
| 2026-04-16 02:59 | -23.32572 | -46.23463 | 10397 ft | 301 kts | 58° |
| 2026-04-16 02:59 | -23.31414 | -46.21467 | 10523 ft | 323 kts | 58° |
| 2026-04-16 02:59 | -23.30186 | -46.19350 | 10824 ft | 336 kts | 58° |
| 2026-04-16 02:59 | -23.28925 | -46.17183 | 11369 ft | 341 kts | 58° |
| 2026-04-16 03:00 | -23.27651 | -46.14996 | 11969 ft | 344 kts | 58° |
| 2026-04-16 03:00 | -23.26367 | -46.12789 | 12526 ft | 347 kts | 58° |
| 2026-04-16 03:00 | -23.25075 | -46.10568 | 13114 ft | 349 kts | 58° |
| 2026-04-16 03:00 | -23.23772 | -46.08328 | 13698 ft | 352 kts | 57° |
| 2026-04-16 03:01 | -23.22365 | -46.06143 | 14213 ft | 355 kts | 49° |
| 2026-04-16 03:01 | -23.20559 | -46.04301 | 14661 ft | 359 kts | 36° |
| 2026-04-16 03:01 | -23.18397 | -46.02923 | 15104 ft | 363 kts | 23° |
| 2026-04-16 03:01 | -23.16014 | -46.01972 | 15545 ft | 367 kts | 19° |
| 2026-04-16 03:02 | -23.13587 | -46.01056 | 15985 ft | 371 kts | 17° |
| 2026-04-16 03:02 | -23.11059 | -46.00449 | 16425 ft | 374 kts | 6° |
| 2026-04-16 03:02 | -23.08457 | -46.00129 | 16875 ft | 378 kts | 6° |
| 2026-04-16 03:02 | -23.05836 | -45.99812 | 17332 ft | 381 kts | 5° |
| 2026-04-16 03:03 | -23.03184 | -45.99494 | 17776 ft | 385 kts | 5° |
| 2026-04-16 03:03 | -23.00510 | -45.99172 | 18228 ft | 389 kts | 5° |
| 2026-04-16 03:03 | -22.97806 | -45.98844 | 18634 ft | 392 kts | 5° |
| 2026-04-16 03:03 | -22.95087 | -45.98512 | 19043 ft | 395 kts | 5° |
| 2026-04-16 03:04 | -22.92352 | -45.98179 | 19467 ft | 397 kts | 5° |
| 2026-04-16 03:04 | -22.89591 | -45.97843 | 19886 ft | 400 kts | 5° |
| 2026-04-16 03:04 | -22.86847 | -45.97276 | 20303 ft | 404 kts | 12° |
| 2026-04-16 03:04 | -22.84102 | -45.96572 | 20726 ft | 406 kts | 12° |
| 2026-04-16 03:05 | -22.81347 | -45.95860 | 21154 ft | 409 kts | 12° |
| 2026-04-16 03:05 | -22.78570 | -45.95136 | 21570 ft | 412 kts | 12° |
| 2026-04-16 03:05 | -22.75774 | -45.94406 | 21985 ft | 414 kts | 12° |
| 2026-04-16 03:05 | -22.72961 | -45.93673 | 22394 ft | 417 kts | 12° |
| 2026-04-16 03:06 | -22.70127 | -45.92939 | 22805 ft | 420 kts | 12° |
| 2026-04-16 03:06 | -22.67276 | -45.92204 | 23203 ft | 423 kts | 12° |
| 2026-04-16 03:06 | -22.61520 | -45.90721 | 23918 ft | 428 kts | 12° |
| 2026-04-16 03:07 | -22.58617 | -45.89975 | 24225 ft | 430 kts | 12° |
| 2026-04-16 03:07 | -22.55698 | -45.89227 | 24535 ft | 432 kts | 12° |
| 2026-04-16 03:07 | -22.52761 | -45.88473 | 24841 ft | 435 kts | 12° |
| 2026-04-16 03:07 | -22.49810 | -45.87714 | 25150 ft | 437 kts | 12° |
| 2026-04-16 03:08 | -22.46842 | -45.86949 | 25452 ft | 439 kts | 12° |
| 2026-04-16 03:08 | -22.43864 | -45.86181 | 25746 ft | 441 kts | 12° |
| 2026-04-16 03:08 | -22.40872 | -45.85410 | 26054 ft | 443 kts | 12° |
| 2026-04-16 03:08 | -22.37863 | -45.84637 | 26358 ft | 445 kts | 12° |
| 2026-04-16 03:09 | -22.34844 | -45.83862 | 26642 ft | 448 kts | 12° |
| 2026-04-16 03:09 | -22.31804 | -45.83072 | 26915 ft | 450 kts | 14° |
| 2026-04-16 03:09 | -22.28853 | -45.81927 | 27185 ft | 454 kts | 24° |
| 2026-04-16 03:09 | -22.26098 | -45.80228 | 27455 ft | 458 kts | 34° |
| 2026-04-16 03:10 | -22.23610 | -45.78135 | 27718 ft | 460 kts | 38° |
| 2026-04-16 03:10 | -22.21077 | -45.75935 | 27994 ft | 462 kts | 38° |
| 2026-04-16 03:10 | -22.18595 | -45.73791 | 28267 ft | 464 kts | 38° |
| 2026-04-16 03:10 | -22.16064 | -45.71611 | 28542 ft | 466 kts | 38° |
| 2026-04-16 03:11 | -22.13528 | -45.69425 | 28824 ft | 469 kts | 38° |
| 2026-04-16 03:11 | -22.10938 | -45.67187 | 29104 ft | 471 kts | 38° |
| 2026-04-16 03:11 | -22.08414 | -45.65005 | 29378 ft | 473 kts | 38° |
| 2026-04-16 03:11 | -22.05840 | -45.62783 | 29655 ft | 475 kts | 38° |
| 2026-04-16 03:12 | -22.03256 | -45.60556 | 29923 ft | 477 kts | 38° |
| 2026-04-16 03:12 | -22.00658 | -45.58322 | 30257 ft | 478 kts | 38° |
| 2026-04-16 03:12 | -21.98067 | -45.56093 | 30644 ft | 475 kts | 38° |
| 2026-04-16 03:12 | -21.95493 | -45.53878 | 31070 ft | 472 kts | 38° |
| 2026-04-16 03:13 | -21.92931 | -45.51676 | 31476 ft | 470 kts | 38° |
| 2026-04-16 03:13 | -21.90381 | -45.49486 | 31885 ft | 468 kts | 37° |
| 2026-04-16 03:13 | -21.87841 | -45.47307 | 32293 ft | 466 kts | 37° |
| 2026-04-16 03:13 | -21.85317 | -45.45141 | 32703 ft | 464 kts | 38° |
| 2026-04-16 03:14 | -21.82802 | -45.42980 | 33113 ft | 462 kts | 37° |
| 2026-04-16 03:14 | -21.80296 | -45.40831 | 33534 ft | 460 kts | 37° |
| 2026-04-16 03:14 | -21.77801 | -45.38691 | 33953 ft | 458 kts | 37° |
| 2026-04-16 03:14 | -21.75312 | -45.36558 | 34305 ft | 456 kts | 38° |
| 2026-04-16 03:15 | -21.72832 | -45.34430 | 34592 ft | 456 kts | 38° |
| 2026-04-16 03:15 | -21.70355 | -45.32303 | 34846 ft | 456 kts | 38° |
| 2026-04-16 03:15 | -21.67869 | -45.30169 | 35101 ft | 457 kts | 38° |
| 2026-04-16 03:15 | -21.65386 | -45.28044 | 35342 ft | 457 kts | 38° |
| 2026-04-16 03:16 | -21.62895 | -45.25918 | 35579 ft | 457 kts | 38° |
| 2026-04-16 03:16 | -21.60404 | -45.23794 | 35804 ft | 458 kts | 39° |
| 2026-04-16 03:16 | -21.57908 | -45.21666 | 36026 ft | 458 kts | 39° |
| 2026-04-16 03:16 | -21.55412 | -45.19535 | 36247 ft | 458 kts | 39° |
| 2026-04-16 03:17 | -21.52913 | -45.17399 | 36448 ft | 459 kts | 39° |
| 2026-04-16 03:17 | -21.50412 | -45.15263 | 36638 ft | 460 kts | 39° |
| 2026-04-16 03:17 | -21.47904 | -45.13121 | 36853 ft | 461 kts | 39° |
| 2026-04-16 03:17 | -21.45393 | -45.10973 | 37036 ft | 462 kts | 39° |
| 2026-04-16 03:18 | -21.42871 | -45.08822 | 37094 ft | 465 kts | 39° |
| 2026-04-16 03:18 | -21.37773 | -45.04485 | 37092 ft | 469 kts | 39° |
| 2026-04-16 03:19 | -21.32660 | -45.00145 | 37097 ft | 468 kts | 39° |
| 2026-04-16 03:19 | -21.27591 | -44.95833 | 37093 ft | 468 kts | 39° |
| 2026-04-16 03:20 | -21.22483 | -44.91501 | 37093 ft | 468 kts | 39° |
| 2026-04-16 03:20 | -21.17385 | -44.87165 | 37101 ft | 468 kts | 40° |
| 2026-04-16 03:21 | -21.12273 | -44.82827 | 37105 ft | 468 kts | 39° |
| 2026-04-16 03:21 | -21.07160 | -44.78498 | 37100 ft | 469 kts | 40° |
| 2026-04-16 03:22 | -21.01995 | -44.74242 | 37100 ft | 469 kts | 37° |
| 2026-04-16 03:22 | -20.96662 | -44.70210 | 37102 ft | 470 kts | 36° |
| 2026-04-16 03:23 | -20.91294 | -44.66214 | 37107 ft | 470 kts | 36° |
| 2026-04-16 03:23 | -20.85964 | -44.62178 | 37109 ft | 470 kts | 37° |
| 2026-04-16 03:24 | -20.80646 | -44.58105 | 37106 ft | 470 kts | 37° |
| 2026-04-16 03:24 | -20.75319 | -44.54029 | 37106 ft | 471 kts | 37° |
| 2026-04-16 03:25 | -20.69990 | -44.49970 | 37100 ft | 471 kts | 37° |
| 2026-04-16 03:25 | -20.64653 | -44.45909 | 37107 ft | 471 kts | 37° |
| 2026-04-16 03:26 | -20.60222 | -44.42533 | 37105 ft | 471 kts | 37° |
| 2026-04-16 03:26 | -20.54891 | -44.38479 | 37107 ft | 471 kts | 37° |
| 2026-04-16 03:27 | -20.49548 | -44.34427 | 37106 ft | 471 kts | 37° |
| 2026-04-16 03:27 | -20.44209 | -44.30382 | 37116 ft | 471 kts | 37° |
| 2026-04-16 03:28 | -20.38920 | -44.26276 | 37110 ft | 470 kts | 38° |
| 2026-04-16 03:28 | -20.33696 | -44.22085 | 37110 ft | 470 kts | 39° |
| 2026-04-16 03:29 | -20.28470 | -44.17892 | 37099 ft | 470 kts | 38° |
| 2026-04-16 03:29 | -20.23221 | -44.13735 | 37099 ft | 470 kts | 38° |
| 2026-04-16 03:30 | -20.17961 | -44.09590 | 37104 ft | 470 kts | 38° |
| 2026-04-16 03:30 | -20.12699 | -44.05455 | 37112 ft | 470 kts | 36° |
| 2026-04-16 03:31 | -20.06829 | -44.02396 | 37115 ft | 472 kts | 17° |
| 2026-04-16 03:31 | -20.00387 | -44.01051 | 37106 ft | 473 kts | 10° |
| 2026-04-16 03:32 | -19.93895 | -43.99879 | 37118 ft | 473 kts | 10° |
| 2026-04-16 03:34 | -19.67932 | -43.95171 | 37077 ft | 473 kts | 10° |
| 2026-04-16 03:34 | -19.61444 | -43.93996 | 37151 ft | 473 kts | 10° |
| 2026-04-16 03:35 | -19.54959 | -43.92822 | 37145 ft | 473 kts | 10° |
| 2026-04-16 03:35 | -19.48477 | -43.91659 | 37132 ft | 472 kts | 10° |
| 2026-04-16 03:36 | -19.42003 | -43.90494 | 37112 ft | 472 kts | 10° |
| 2026-04-16 03:36 | -19.35534 | -43.89327 | 37089 ft | 471 kts | 10° |
| 2026-04-16 03:37 | -19.29062 | -43.88162 | 37077 ft | 471 kts | 10° |
| 2026-04-16 03:37 | -19.22651 | -43.87011 | 37070 ft | 470 kts | 10° |
| 2026-04-16 03:38 | -19.16195 | -43.85849 | 37059 ft | 470 kts | 10° |
| 2026-04-16 03:38 | -19.09752 | -43.84690 | 37072 ft | 470 kts | 10° |
| 2026-04-16 03:39 | -19.03309 | -43.83535 | 37067 ft | 469 kts | 10° |
| 2026-04-16 03:39 | -18.96882 | -43.82377 | 37069 ft | 469 kts | 10° |
| 2026-04-16 03:40 | -18.90448 | -43.81229 | 37060 ft | 469 kts | 10° |
| 2026-04-16 03:40 | -18.84007 | -43.80082 | 37072 ft | 469 kts | 10° |
| 2026-04-16 03:41 | -18.77566 | -43.78937 | 37071 ft | 469 kts | 10° |
| 2026-04-16 03:41 | -18.71131 | -43.77787 | 37054 ft | 469 kts | 10° |
| 2026-04-16 03:42 | -18.64688 | -43.76636 | 37061 ft | 470 kts | 10° |
| 2026-04-16 03:42 | -18.58247 | -43.75489 | 37058 ft | 469 kts | 10° |
| 2026-04-16 03:43 | -18.51813 | -43.74344 | 37082 ft | 468 kts | 10° |
| 2026-04-16 03:43 | -18.45393 | -43.73205 | 37075 ft | 468 kts | 10° |
| 2026-04-16 03:44 | -18.38974 | -43.72058 | 37069 ft | 468 kts | 10° |
| 2026-04-16 03:44 | -18.32564 | -43.70910 | 37079 ft | 467 kts | 10° |
| 2026-04-16 03:45 | -18.26166 | -43.69771 | 37071 ft | 466 kts | 10° |
| 2026-04-16 03:45 | -18.19770 | -43.68638 | 37076 ft | 466 kts | 10° |
| 2026-04-16 03:46 | -18.13383 | -43.67509 | 37067 ft | 466 kts | 10° |
| 2026-04-16 03:46 | -18.07092 | -43.65942 | 37080 ft | 464 kts | 17° |
| 2026-04-16 03:47 | -18.00897 | -43.64031 | 37064 ft | 464 kts | 17° |
| 2026-04-16 03:47 | -17.94701 | -43.62120 | 37066 ft | 464 kts | 17° |
| 2026-04-16 03:48 | -17.88503 | -43.60215 | 37062 ft | 464 kts | 17° |
| 2026-04-16 03:48 | -17.82341 | -43.58324 | 37048 ft | 464 kts | 17° |
| 2026-04-16 03:49 | -17.76137 | -43.56426 | 37043 ft | 464 kts | 17° |
| 2026-04-16 03:49 | -17.69893 | -43.54513 | 37050 ft | 464 kts | 17° |
| 2026-04-16 03:50 | -17.63697 | -43.52613 | 37044 ft | 464 kts | 17° |
| 2026-04-16 03:50 | -17.57492 | -43.50719 | 37044 ft | 464 kts | 17° |
| 2026-04-16 03:51 | -17.51296 | -43.48825 | 37044 ft | 464 kts | 17° |
| 2026-04-16 03:51 | -17.45101 | -43.46931 | 37041 ft | 464 kts | 17° |
| 2026-04-16 03:52 | -17.38951 | -43.45054 | 37047 ft | 463 kts | 17° |
| 2026-04-16 03:52 | -17.32768 | -43.43169 | 37042 ft | 463 kts | 17° |
| 2026-04-16 03:53 | -17.26577 | -43.41283 | 37034 ft | 463 kts | 17° |
| 2026-04-16 03:53 | -17.20339 | -43.39383 | 37032 ft | 464 kts | 17° |
| 2026-04-16 03:54 | -17.14145 | -43.37491 | 37050 ft | 463 kts | 17° |
| 2026-04-16 03:54 | -17.07963 | -43.35609 | 37043 ft | 463 kts | 17° |
| 2026-04-16 03:55 | -17.01770 | -43.33726 | 37046 ft | 463 kts | 17° |
| 2026-04-16 03:55 | -16.95586 | -43.31843 | 37047 ft | 462 kts | 17° |
| 2026-04-16 03:56 | -16.89461 | -43.29979 | 37051 ft | 462 kts | 17° |
| 2026-04-16 03:56 | -16.83248 | -43.28102 | 37049 ft | 461 kts | 17° |
| 2026-04-16 03:57 | -16.77091 | -43.26240 | 37047 ft | 461 kts | 17° |
| 2026-04-16 03:57 | -16.70989 | -43.24379 | 37050 ft | 460 kts | 17° |
| 2026-04-16 03:58 | -16.64856 | -43.22515 | 37046 ft | 458 kts | 17° |
| 2026-04-16 03:58 | -16.58735 | -43.20665 | 37039 ft | 458 kts | 17° |
| 2026-04-16 03:59 | -16.52622 | -43.18815 | 37031 ft | 457 kts | 17° |
| 2026-04-16 03:59 | -16.46514 | -43.16970 | 37033 ft | 457 kts | 17° |
| 2026-04-16 04:00 | -16.40403 | -43.15127 | 37036 ft | 457 kts | 17° |
| 2026-04-16 04:00 | -16.34291 | -43.13279 | 37034 ft | 457 kts | 17° |
| 2026-04-16 04:01 | -16.28180 | -43.11442 | 37038 ft | 457 kts | 17° |
| 2026-04-16 04:01 | -16.22064 | -43.09602 | 37036 ft | 457 kts | 17° |
| 2026-04-16 04:02 | -16.15979 | -43.07720 | 37027 ft | 456 kts | 19° |
| 2026-04-16 04:02 | -16.09984 | -43.05570 | 37023 ft | 455 kts | 21° |
| 2026-04-16 04:03 | -16.04023 | -43.03331 | 37022 ft | 455 kts | 21° |
| 2026-04-16 04:03 | -15.98043 | -43.01157 | 37019 ft | 456 kts | 20° |
| 2026-04-16 04:04 | -15.92043 | -42.99024 | 37020 ft | 456 kts | 20° |
| 2026-04-16 04:04 | -15.86030 | -42.96889 | 37019 ft | 456 kts | 20° |
| 2026-04-16 04:05 | -15.80021 | -42.94744 | 37013 ft | 456 kts | 20° |
| 2026-04-16 04:05 | -15.74016 | -42.92596 | 37012 ft | 456 kts | 20° |
| 2026-04-16 04:06 | -15.68010 | -42.90449 | 37010 ft | 456 kts | 20° |
| 2026-04-16 04:06 | -15.62004 | -42.88306 | 37016 ft | 456 kts | 20° |
| 2026-04-16 04:07 | -15.55998 | -42.86167 | 37007 ft | 456 kts | 19° |
| 2026-04-16 04:07 | -15.46981 | -42.82967 | 37008 ft | 457 kts | 19° |
| 2026-04-16 04:08 | -15.40963 | -42.80830 | 37008 ft | 457 kts | 20° |
| 2026-04-16 04:08 | -15.34946 | -42.78684 | 37011 ft | 458 kts | 20° |
| 2026-04-16 04:09 | -15.29933 | -42.76894 | 37011 ft | 458 kts | 20° |
| 2026-04-16 04:09 | -15.22916 | -42.74396 | 37009 ft | 459 kts | 20° |
| 2026-04-16 04:10 | -15.16871 | -42.72248 | 37010 ft | 460 kts | 20° |
| 2026-04-16 04:10 | -15.10819 | -42.70108 | 37009 ft | 460 kts | 20° |
| 2026-04-16 04:11 | -15.05748 | -42.68315 | 37015 ft | 460 kts | 19° |
| 2026-04-16 04:11 | -14.99695 | -42.66171 | 37012 ft | 460 kts | 19° |
| 2026-04-16 04:12 | -14.93648 | -42.64026 | 37012 ft | 459 kts | 19° |
| 2026-04-16 04:12 | -14.87602 | -42.61880 | 37010 ft | 459 kts | 19° |
| 2026-04-16 04:13 | -14.81555 | -42.59743 | 37005 ft | 460 kts | 19° |
| 2026-04-16 04:13 | -14.75499 | -42.57608 | 37000 ft | 460 kts | 19° |
| 2026-04-16 04:14 | -14.69436 | -42.55463 | 37001 ft | 461 kts | 19° |
| 2026-04-16 04:14 | -14.63367 | -42.53317 | 36995 ft | 461 kts | 19° |
| 2026-04-16 04:15 | -14.57290 | -42.51177 | 36992 ft | 462 kts | 19° |
| 2026-04-16 04:15 | -14.51200 | -42.49025 | 36985 ft | 463 kts | 19° |
| 2026-04-16 04:16 | -14.45091 | -42.46867 | 36993 ft | 464 kts | 19° |
| 2026-04-16 04:16 | -14.39019 | -42.44731 | 36999 ft | 464 kts | 19° |
| 2026-04-16 04:17 | -14.32865 | -42.42569 | 36999 ft | 464 kts | 18° |
| 2026-04-16 04:17 | -14.26749 | -42.40406 | 37001 ft | 465 kts | 19° |
| 2026-04-16 04:18 | -14.20634 | -42.38257 | 37008 ft | 464 kts | 19° |
| 2026-04-16 04:18 | -14.14560 | -42.36128 | 37015 ft | 464 kts | 19° |
| 2026-04-16 04:19 | -14.08456 | -42.33981 | 37009 ft | 463 kts | 19° |
| 2026-04-16 04:19 | -14.02360 | -42.31833 | 37008 ft | 463 kts | 19° |
| 2026-04-16 04:20 | -13.96267 | -42.29699 | 37007 ft | 463 kts | 19° |
| 2026-04-16 04:20 | -13.90173 | -42.27570 | 37008 ft | 462 kts | 19° |
| 2026-04-16 04:21 | -13.84076 | -42.25438 | 36987 ft | 463 kts | 18° |
| 2026-04-16 04:21 | -13.77975 | -42.23295 | 36983 ft | 464 kts | 18° |
| 2026-04-16 04:22 | -13.71866 | -42.21158 | 36990 ft | 465 kts | 18° |
| 2026-04-16 04:22 | -13.65743 | -42.19015 | 36992 ft | 465 kts | 18° |
| 2026-04-16 04:23 | -13.59621 | -42.16860 | 36989 ft | 465 kts | 18° |
| 2026-04-16 04:23 | -13.53500 | -42.14671 | 36990 ft | 466 kts | 18° |
| 2026-04-16 04:24 | -13.47386 | -42.12472 | 36993 ft | 466 kts | 18° |
| 2026-04-16 04:24 | -13.41256 | -42.10272 | 36999 ft | 467 kts | 18° |
| 2026-04-16 04:25 | -13.35117 | -42.08083 | 36999 ft | 467 kts | 18° |
| 2026-04-16 04:25 | -13.28973 | -42.05894 | 37001 ft | 468 kts | 18° |
| 2026-04-16 04:26 | -13.22823 | -42.03702 | 37006 ft | 468 kts | 18° |
| 2026-04-16 04:26 | -13.16666 | -42.01508 | 37018 ft | 468 kts | 18° |
| 2026-04-16 04:27 | -13.10509 | -41.99311 | 37009 ft | 469 kts | 17° |
| 2026-04-16 04:27 | -13.04344 | -41.97119 | 37019 ft | 469 kts | 17° |
| 2026-04-16 04:28 | -12.98180 | -41.94933 | 37021 ft | 469 kts | 17° |
| 2026-04-16 04:28 | -12.92011 | -41.92739 | 37032 ft | 469 kts | 17° |
| 2026-04-16 04:29 | -12.85842 | -41.90538 | 37033 ft | 469 kts | 18° |
| 2026-04-16 04:29 | -12.79684 | -41.88349 | 37030 ft | 469 kts | 17° |
| 2026-04-16 04:30 | -12.73519 | -41.86165 | 37035 ft | 469 kts | 17° |
| 2026-04-16 04:30 | -12.67355 | -41.83982 | 37039 ft | 469 kts | 17° |
| 2026-04-16 04:31 | -12.61236 | -41.81814 | 37037 ft | 469 kts | 17° |
| 2026-04-16 04:31 | -12.55071 | -41.79629 | 37034 ft | 469 kts | 17° |
| 2026-04-16 04:32 | -12.48912 | -41.77440 | 37037 ft | 469 kts | 17° |
| 2026-04-16 04:32 | -12.42756 | -41.75256 | 37036 ft | 468 kts | 17° |
| 2026-04-16 04:33 | -12.36595 | -41.73081 | 37036 ft | 468 kts | 17° |
| 2026-04-16 04:33 | -12.30441 | -41.70901 | 37033 ft | 468 kts | 16° |
| 2026-04-16 04:34 | -12.24290 | -41.68730 | 37025 ft | 467 kts | 16° |
| 2026-04-16 04:34 | -12.18143 | -41.66558 | 37030 ft | 467 kts | 16° |
| 2026-04-16 04:35 | -12.12000 | -41.64385 | 37030 ft | 467 kts | 16° |
| 2026-04-16 04:35 | -12.05863 | -41.62209 | 37022 ft | 467 kts | 16° |
| 2026-04-16 04:36 | -11.99722 | -41.60047 | 37022 ft | 466 kts | 16° |
| 2026-04-16 04:36 | -11.93591 | -41.57897 | 37024 ft | 466 kts | 16° |
| 2026-04-16 04:37 | -11.87463 | -41.55743 | 37029 ft | 466 kts | 16° |
| 2026-04-16 04:37 | -11.81378 | -41.53585 | 37016 ft | 466 kts | 16° |
| 2026-04-16 04:38 | -11.75261 | -41.51423 | 37019 ft | 466 kts | 16° |
| 2026-04-16 04:38 | -11.69131 | -41.49279 | 37019 ft | 465 kts | 15° |
| 2026-04-16 04:39 | -11.62955 | -41.47311 | 37018 ft | 465 kts | 13° |
| 2026-04-16 04:39 | -11.56752 | -41.45442 | 37021 ft | 465 kts | 13° |
| 2026-04-16 04:40 | -11.50561 | -41.43551 | 37011 ft | 465 kts | 14° |
| 2026-04-16 04:40 | -11.44380 | -41.41615 | 37017 ft | 464 kts | 14° |
| 2026-04-16 04:41 | -11.38204 | -41.39677 | 37014 ft | 464 kts | 14° |
| 2026-04-16 04:41 | -11.32023 | -41.37739 | 37014 ft | 464 kts | 14° |
| 2026-04-16 04:42 | -11.25850 | -41.35815 | 36997 ft | 463 kts | 14° |
| 2026-04-16 04:42 | -11.19688 | -41.33868 | 36996 ft | 464 kts | 15° |
| 2026-04-16 04:43 | -11.13577 | -41.31763 | 37004 ft | 464 kts | 16° |
| 2026-04-16 04:43 | -11.07476 | -41.29608 | 37006 ft | 464 kts | 16° |
| 2026-04-16 04:44 | -11.01373 | -41.27491 | 37003 ft | 463 kts | 15° |
| 2026-04-16 04:44 | -10.95301 | -41.25417 | 37000 ft | 463 kts | 15° |
| 2026-04-16 04:45 | -10.89152 | -41.23328 | 37005 ft | 463 kts | 15° |
| 2026-04-16 04:45 | -10.83078 | -41.21262 | 37003 ft | 463 kts | 15° |
| 2026-04-16 04:46 | -10.76928 | -41.19164 | 36635 ft | 465 kts | 15° |
| 2026-04-16 04:46 | -10.73853 | -41.18116 | 35486 ft | 479 kts | 15° |
| 2026-04-16 04:46 | -10.70679 | -41.17035 | 34703 ft | 483 kts | 16° |
| 2026-04-16 04:47 | -10.67488 | -41.15944 | 34091 ft | 483 kts | 16° |
| 2026-04-16 04:47 | -10.64311 | -41.14853 | 33495 ft | 481 kts | 16° |
| 2026-04-16 04:47 | -10.61150 | -41.13770 | 32951 ft | 478 kts | 17° |
| 2026-04-16 04:47 | -10.58009 | -41.12697 | 32435 ft | 475 kts | 17° |
| 2026-04-16 04:48 | -10.54888 | -41.11632 | 31936 ft | 471 kts | 17° |
| 2026-04-16 04:48 | -10.51790 | -41.10572 | 31437 ft | 468 kts | 17° |
| 2026-04-16 04:48 | -10.48720 | -41.09521 | 30962 ft | 464 kts | 17° |
| 2026-04-16 04:48 | -10.45669 | -41.08475 | 30479 ft | 461 kts | 18° |
| 2026-04-16 04:49 | -10.42644 | -41.07440 | 30010 ft | 457 kts | 18° |
| 2026-04-16 04:49 | -10.39637 | -41.06417 | 29483 ft | 454 kts | 18° |
| 2026-04-16 04:49 | -10.36654 | -41.05409 | 28982 ft | 450 kts | 18° |
| 2026-04-16 04:49 | -10.33699 | -41.04407 | 28501 ft | 446 kts | 18° |
| 2026-04-16 04:50 | -10.30768 | -41.03410 | 28029 ft | 442 kts | 19° |
| 2026-04-16 04:50 | -10.27861 | -41.02415 | 27570 ft | 438 kts | 19° |
| 2026-04-16 04:50 | -10.24988 | -41.01428 | 27112 ft | 435 kts | 19° |
| 2026-04-16 04:50 | -10.22128 | -41.00447 | 26665 ft | 432 kts | 20° |
| 2026-04-16 04:51 | -10.19284 | -40.99473 | 26193 ft | 431 kts | 20° |
| 2026-04-16 04:51 | -10.16458 | -40.98508 | 25819 ft | 427 kts | 19° |
| 2026-04-16 04:51 | -10.13652 | -40.97552 | 25434 ft | 424 kts | 20° |
| 2026-04-16 04:51 | -10.10874 | -40.96608 | 25067 ft | 420 kts | 20° |
| 2026-04-16 04:52 | -10.08111 | -40.95670 | 24734 ft | 416 kts | 20° |
| 2026-04-16 04:52 | -10.05372 | -40.94740 | 24381 ft | 413 kts | 21° |
| 2026-04-16 04:52 | -10.02657 | -40.93818 | 24058 ft | 410 kts | 21° |
| 2026-04-16 04:52 | -9.99961 | -40.92905 | 23707 ft | 407 kts | 20° |
| 2026-04-16 04:53 | -9.97287 | -40.92000 | 23357 ft | 403 kts | 20° |
| 2026-04-16 04:53 | -9.94641 | -40.91101 | 22934 ft | 399 kts | 20° |
| 2026-04-16 04:53 | -9.92025 | -40.90210 | 22533 ft | 395 kts | 20° |
| 2026-04-16 04:53 | -9.89430 | -40.89324 | 22112 ft | 392 kts | 20° |
| 2026-04-16 04:54 | -9.86853 | -40.88447 | 21683 ft | 389 kts | 20° |
| 2026-04-16 04:54 | -9.84292 | -40.87576 | 21254 ft | 386 kts | 20° |
| 2026-04-16 04:54 | -9.81756 | -40.86714 | 20825 ft | 383 kts | 20° |
| 2026-04-16 04:54 | -9.79233 | -40.85860 | 20391 ft | 381 kts | 20° |
| 2026-04-16 04:55 | -9.77575 | -40.85300 | 20115 ft | 379 kts | 20° |
| 2026-04-16 04:55 | -9.75086 | -40.84459 | 19691 ft | 376 kts | 20° |
| 2026-04-16 04:55 | -9.72609 | -40.83620 | 19269 ft | 373 kts | 20° |
| 2026-04-16 04:55 | -9.70157 | -40.82789 | 18870 ft | 370 kts | 20° |
| 2026-04-16 04:56 | -9.67729 | -40.81968 | 18481 ft | 367 kts | 19° |
| 2026-04-16 04:56 | -9.65312 | -40.81151 | 18048 ft | 364 kts | 19° |
| 2026-04-16 04:56 | -9.62917 | -40.80340 | 17601 ft | 362 kts | 20° |
| 2026-04-16 04:56 | -9.60540 | -40.79535 | 17287 ft | 355 kts | 19° |
| 2026-04-16 04:57 | -9.58238 | -40.78758 | 17157 ft | 344 kts | 19° |
| 2026-04-16 04:57 | -9.55989 | -40.77998 | 16893 ft | 338 kts | 19° |
| 2026-04-16 04:57 | -9.53771 | -40.77247 | 16549 ft | 335 kts | 19° |
| 2026-04-16 04:57 | -9.51568 | -40.76503 | 16187 ft | 333 kts | 19° |
| 2026-04-16 04:58 | -9.49357 | -40.75845 | 15834 ft | 330 kts | 9° |
| 2026-04-16 04:58 | -9.47079 | -40.75761 | 15500 ft | 328 kts | 355° |
| 2026-04-16 04:58 | -9.44820 | -40.75824 | 15258 ft | 322 kts | 9° |
| 2026-04-16 04:58 | -9.42780 | -40.75010 | 15028 ft | 315 kts | 34° |
| 2026-04-16 04:59 | -9.41177 | -40.73532 | 14803 ft | 310 kts | 51° |
| 2026-04-16 04:59 | -9.40096 | -40.71674 | 14579 ft | 305 kts | 69° |
| 2026-04-16 04:59 | -9.39676 | -40.69592 | 14354 ft | 301 kts | 90° |
| 2026-04-16 04:59 | -9.40000 | -40.67529 | 14135 ft | 296 kts | 111° |
| 2026-04-16 05:00 | -9.41009 | -40.65748 | 13914 ft | 291 kts | 131° |
| 2026-04-16 05:00 | -9.42542 | -40.64441 | 13675 ft | 288 kts | 152° |
| 2026-04-16 05:00 | -9.44338 | -40.63538 | 13411 ft | 288 kts | 156° |
| 2026-04-16 05:00 | -9.46179 | -40.62750 | 13166 ft | 286 kts | 158° |
| 2026-04-16 05:01 | -9.48023 | -40.62011 | 12917 ft | 284 kts | 159° |
| 2026-04-16 05:01 | -9.49859 | -40.61284 | 12664 ft | 282 kts | 158° |
| 2026-04-16 05:01 | -9.51677 | -40.60559 | 12414 ft | 280 kts | 158° |
| 2026-04-16 05:01 | -9.53527 | -40.59967 | 12162 ft | 278 kts | 171° |
| 2026-04-16 05:02 | -9.55455 | -40.59926 | 11899 ft | 278 kts | 188° |
| 2026-04-16 05:02 | -9.57297 | -40.60473 | 11655 ft | 278 kts | 206° |
| 2026-04-16 05:02 | -9.58889 | -40.61576 | 11413 ft | 278 kts | 223° |
| 2026-04-16 05:02 | -9.60066 | -40.63129 | 11172 ft | 280 kts | 241° |
| 2026-04-16 05:03 | -9.60718 | -40.64983 | 10933 ft | 280 kts | 260° |
| 2026-04-16 05:03 | -9.60773 | -40.66946 | 10698 ft | 280 kts | 278° |
| 2026-04-16 05:03 | -9.60222 | -40.68832 | 10467 ft | 282 kts | 297° |
| 2026-04-16 05:04 | -9.57597 | -40.71646 | 10011 ft | 277 kts | 332° |
| 2026-04-16 05:04 | -9.55860 | -40.72517 | 9498 ft | 285 kts | 337° |
| 2026-04-16 05:04 | -9.53983 | -40.73321 | 8727 ft | 301 kts | 339° |
| 2026-04-16 05:04 | -9.51991 | -40.74118 | 8012 ft | 312 kts | 340° |
| 2026-04-16 05:05 | -9.50026 | -40.74898 | 7792 ft | 293 kts | 340° |
| 2026-04-16 05:05 | -9.48184 | -40.75594 | 7639 ft | 275 kts | 345° |
| 2026-04-16 05:05 | -9.46335 | -40.76067 | 7358 ft | 273 kts | 351° |
| 2026-04-16 05:05 | -9.44472 | -40.76419 | 7031 ft | 274 kts | 352° |
| 2026-04-16 05:06 | -9.42588 | -40.76736 | 6697 ft | 275 kts | 353° |
| 2026-04-16 05:06 | -9.40692 | -40.76982 | 6350 ft | 274 kts | 2° |
| 2026-04-16 05:06 | -9.38818 | -40.76742 | 5992 ft | 271 kts | 19° |
| 2026-04-16 05:06 | -9.37038 | -40.76124 | 5636 ft | 271 kts | 23° |
| 2026-04-16 05:07 | -9.35249 | -40.75493 | 5280 ft | 272 kts | 22° |
| 2026-04-16 05:07 | -9.33457 | -40.74870 | 4918 ft | 273 kts | 23° |
| 2026-04-16 05:07 | -9.31848 | -40.73968 | 4528 ft | 265 kts | 50° |
| 2026-04-16 05:07 | -9.31065 | -40.72376 | 4350 ft | 247 kts | 86° |
| 2026-04-16 05:08 | -9.31252 | -40.70666 | 3920 ft | 248 kts | 107° |
| 2026-04-16 05:08 | -9.31799 | -40.69013 | 3565 ft | 249 kts | 111° |
| 2026-04-16 05:08 | -9.32432 | -40.67377 | 3223 ft | 249 kts | 113° |
| 2026-04-16 05:08 | -9.33107 | -40.65754 | 2948 ft | 248 kts | 115° |
| 2026-04-16 05:09 | -9.33800 | -40.64171 | 2827 ft | 247 kts | 114° |
| 2026-04-16 05:09 | -9.34395 | -40.62542 | 2520 ft | 236 kts | 111° |
| 2026-04-16 05:09 | -9.34896 | -40.61066 | 2327 ft | 217 kts | 112° |
| 2026-04-16 05:09 | -9.35342 | -40.59616 | 1886 ft | 212 kts | 107° |
| 2026-04-16 05:10 | -9.35822 | -40.58218 | 1485 ft | 205 kts | 108° |
| 2026-04-16 05:10 | -9.36252 | -40.56928 | 1598 ft | 194 kts | 109° |
| 2026-04-16 05:10 | -9.36769 | -40.55490 | 1934 ft | 238 kts | 109° |
| 2026-04-16 05:10 | -9.37307 | -40.53884 | 2811 ft | 233 kts | 109° |
| 2026-04-16 05:11 | -9.37758 | -40.52411 | 3614 ft | 209 kts | 108° |
| 2026-04-16 05:11 | -9.38178 | -40.51032 | 3849 ft | 204 kts | 108° |
| 2026-04-16 05:11 | -9.38306 | -40.49610 | 4097 ft | 207 kts | 83° |
| 2026-04-16 05:11 | -9.37695 | -40.48273 | 4343 ft | 218 kts | 52° |
| 2026-04-16 05:12 | -9.36384 | -40.47463 | 4588 ft | 229 kts | 15° |
| 2026-04-16 05:12 | -9.34785 | -40.47572 | 4839 ft | 241 kts | 340° |
| 2026-04-16 05:12 | -9.33493 | -40.48649 | 4947 ft | 246 kts | 304° |
| 2026-04-16 05:12 | -9.32603 | -40.50137 | 4980 ft | 247 kts | 301° |
| 2026-04-16 05:13 | -9.31749 | -40.51643 | 4981 ft | 246 kts | 300° |
| 2026-04-16 05:13 | -9.30907 | -40.53146 | 4982 ft | 245 kts | 300° |
| 2026-04-16 05:13 | -9.30067 | -40.54640 | 4981 ft | 245 kts | 300° |
| 2026-04-16 05:13 | -9.29219 | -40.56135 | 4982 ft | 245 kts | 301° |
| 2026-04-16 05:14 | -9.28369 | -40.57627 | 4986 ft | 245 kts | 301° |
| 2026-04-16 05:14 | -9.27513 | -40.59123 | 4982 ft | 245 kts | 301° |
| 2026-04-16 05:14 | -9.26651 | -40.60618 | 4979 ft | 247 kts | 301° |
| 2026-04-16 05:14 | -9.25805 | -40.62130 | 4977 ft | 247 kts | 295° |
| 2026-04-16 05:15 | -9.25433 | -40.63806 | 4970 ft | 244 kts | 267° |
| 2026-04-16 05:15 | -9.25796 | -40.65441 | 4701 ft | 235 kts | 239° |
| 2026-04-16 05:15 | -9.26562 | -40.66838 | 4436 ft | 220 kts | 236° |
| 2026-04-16 05:15 | -9.27321 | -40.68164 | 4066 ft | 215 kts | 228° |
| 2026-04-16 05:16 | -9.28364 | -40.69083 | 3927 ft | 186 kts | 201° |
| 2026-04-16 05:16 | -9.29521 | -40.69436 | 3776 ft | 162 kts | 178° |
| 2026-04-16 05:16 | -9.30555 | -40.69356 | 3607 ft | 140 kts | 159° |
| 2026-04-16 05:16 | -9.31412 | -40.68984 | 3253 ft | 133 kts | 143° |
| 2026-04-16 05:17 | -9.32120 | -40.68346 | 2892 ft | 139 kts | 128° |
| 2026-04-16 05:17 | -9.32626 | -40.67476 | 2888 ft | 147 kts | 112° |
| 2026-04-16 05:17 | -9.32960 | -40.66496 | 2878 ft | 146 kts | 110° |
| 2026-04-16 05:17 | -9.33288 | -40.65536 | 2865 ft | 144 kts | 111° |
| 2026-04-16 05:18 | -9.33610 | -40.64591 | 2650 ft | 139 kts | 112° |
| 2026-04-16 05:18 | -9.33922 | -40.63676 | 2460 ft | 137 kts | 112° |
| 2026-04-16 05:18 | -9.34235 | -40.62768 | 2275 ft | 136 kts | 113° |
| 2026-04-16 05:18 | -9.34562 | -40.61846 | 2127 ft | 146 kts | 111° |
| 2026-04-16 05:19 | -9.34913 | -40.60889 | 2014 ft | 143 kts | 109° |
| 2026-04-16 05:19 | -9.35205 | -40.59949 | 1788 ft | 136 kts | 108° |
| 2026-04-16 05:19 | -9.35535 | -40.59017 | 1587 ft | 147 kts | 111° |
| 2026-04-16 05:19 | -9.35860 | -40.58064 | 1454 ft | 138 kts | 109° |
| 2026-04-16 05:20 | -9.36144 | -40.57215 | 1414 ft | 118 kts | 109° |
| 2026-04-16 05:20 | -9.36380 | -40.56523 | 1382 ft | 88 kts | 109° |
| 2026-04-16 05:20 | -9.36499 | -40.56173 | 1381 ft | 29 kts | 109° |
| 2026-04-16 05:20 | -9.36562 | -40.56000 | 1384 ft | 19 kts | 111° |
| 2026-04-16 05:21 | -9.36609 | -40.55950 | 1383 ft | 6 kts | 165° |
| 2026-04-16 05:21 | -9.36659 | -40.55960 | 1382 ft | 9 kts | 196° |
| 2026-04-16 05:21 | -9.36698 | -40.55974 | 1383 ft | 0 kts | 200° |
| 2026-04-16 05:21 | -9.36699 | -40.55975 | 1383 ft | 1 kts | 200° |
| 2026-04-16 05:22 | -9.36715 | -40.55983 | 1379 ft | 5 kts | 213° |
| 2026-04-16 05:22 | -9.36715 | -40.56062 | 1380 ft | 16 kts | 291° |
| 2026-04-16 05:22 | -9.36679 | -40.56163 | 1382 ft | 11 kts | 289° |
| 2026-04-16 05:22 | -9.36655 | -40.56233 | 1381 ft | 7 kts | 288° |
| 2026-04-16 05:23 | -9.36651 | -40.56248 | 1380 ft | 0 kts | 288° |
| 2026-04-16 05:23 | -9.36648 | -40.56256 | 1379 ft | 3 kts | 288° |
| 2026-04-16 05:23 | -9.36641 | -40.56277 | 1381 ft | 0 kts | 288° |
| 2026-04-16 05:23 | -9.36638 | -40.56287 | 1382 ft | 3 kts | 288° |
| 2026-04-16 05:24 | -9.36628 | -40.56319 | 1381 ft | 6 kts | 288° |
| 2026-04-16 05:24 | -9.36612 | -40.56366 | 1380 ft | 8 kts | 288° |
| 2026-04-16 05:24 | -9.36593 | -40.56424 | 1382 ft | 9 kts | 290° |
| 2026-04-16 05:24 | -9.36583 | -40.56451 | 1382 ft | 2 kts | 289° |
| 2026-04-16 05:25 | -9.36576 | -40.56473 | 1381 ft | 4 kts | 289° |
| 2026-04-16 05:25 | -9.36564 | -40.56508 | 1382 ft | 5 kts | 289° |
| 2026-04-16 05:25 | -9.36561 | -40.56517 | 1380 ft | 2 kts | 289° |
| 2026-04-16 05:25 | -9.36555 | -40.56536 | 1381 ft | 4 kts | 288° |
| 2026-04-16 05:26 | -9.36551 | -40.56547 | 1382 ft | 2 kts | 288° |
| 2026-04-16 05:26 | -9.36551 | -40.56566 | 1382 ft | 3 kts | 250° |
| 2026-04-16 05:26 | -9.36567 | -40.56578 | 1379 ft | 1 kts | 207° |
| 2026-04-16 05:26 | -9.36577 | -40.56583 | 1381 ft | 2 kts | 206° |
| 2026-04-16 05:27 | -9.36582 | -40.56585 | 1380 ft | 0 kts | 204° |